Etusivu
METAR-TAF:

METAR-TAF

Lentoasemat :

Corvallis, Oregon, Yhdysvallat

Leveyspiiri: 44-30N, Pituuspiiri: 123-17W, korkeus merenpinnasta: 75 m

Tämänhetkinen sää

Tämä raportti tehtiin 42 minuuttia sitten, kello 11.56 UTC
Tuuli 7 kn etelästä
Lämpötila 14°C
Kosteus 88%
Ilmanpaine 1014 hPa
Näkyvyys: 16.1 km
Pilvistä 10000 ft:n korkeudessa

METAR: KCVO 251156Z AUTO 17007KT 10SM OVC100 14/12 A2993 RMK AO2 SLP136 T01390122 10139 20111 56010

Aika: 05:38 (12:38 UTC)


TAF: puuttuu

Säähavainnot ja -ennusteet yli 4000 lentoasemalta (METAR- ja TAF-raportit).

Käytössä olevat sääasemat on merkitty karttaan keltaisilla ja punaisilla pisteillä.

Aseta hiiri pisteen päälle nähdäksesi sääaseman nimen.

Klikkaa sitten nähdäksesi säähavainnot ja -ennusteet.

Kartan vaihtaminen: klikkaa mustalla rastilla varustettuja vihreitä pisteitä, niin voit zoomata sisään; viivalla varustettua vihreää pistettä, niin voit zoomata ulos tai vihreitä nuolia, niin pääset viereisille kartoille.


METAR-TAF: